Time;durP1;ratioP1;P1;durP2;ratioP2;P2;SDS_P1;SDS_P2;PMS_P1;PMS_P2;Temp;Humidity;BMP_temperature;BMP_pressure;BME280_temperature;BME280_humidity;BME280_pressure;Samples;Min_cycle;Max_cycle;Signal;HPM_P1;HPM_P2
2021/07/03 04:48:15;;;;;;;;;;;;;;;;;;;;;
2021/07/03 04:55:04;;;;;;;;;;;;;;;;;;;;;
2021/07/03 04:59:02;;;;;;;;;;;;;;;;;;;;;
2021/07/03 05:08:43;;;;;;;;;;;;;;;;;;;;;
2021/07/03 05:15:56;;;;;;;;;;;;;;;;;;;;;
2021/07/03 05:45:27;;;;;;;;;;;;;;;;;;;;;
2021/07/03 05:48:31;;;;;;;;;;;;;;;;;;;;;
2021/07/03 05:54:52;;;;;;;;;;;;;;;;;;;;;
2021/07/03 05:58:08;;;;;;;;;;;;;;;;;;;;;
2021/07/03 06:01:10;;;;;;;;;;;;;;;;;;;;;
2021/07/03 06:11:02;;;;;;;;;;;;;;;;;;;;;
2021/07/03 06:15:00;;;;;;;;;;;;;;;;;;;;;
2021/07/03 06:25:14;;;;;;;0.30;0.20;;;;;;;21.52;48.62;92756.19;6302514;22;20040;-93
2021/07/03 06:27:49;;;;;;;0.30;0.30;;;;;;;22.07;46.47;92758.84;6278604;22;20019;-91
2021/07/03 06:30:58;;;;;;;0.38;0.38;;;;;;;22.44;46.69;92759.19;6254117;22;20019;-93
2021/07/03 06:37:51;;;;;;;;;;;;;;;;;;;;;
2021/07/03 06:40:51;;;;;;;0.20;0.20;;;;;;;24.07;37.71;92779.25;6290828;22;20029;-91
2021/07/03 06:44:18;;;;;;;0.20;0.20;;;;;;;25.05;34.53;92763.88;6262446;22;20073;-93
2021/07/03 06:48:09;;;;;;;;;;;;;;;;;;;;;
2021/07/03 06:50:53;;;;;;;;;;;;;;;;;;;;;
2021/07/03 06:54:00;;;;;;;;;;;;;;;;;;;;;
2021/07/03 06:57:56;;;;;;;0.22;0.22;;;;;;;23.46;39.34;92771.19;6296899;22;20019;-92
2021/07/03 07:00:43;;;;;;;0.13;0.13;;;;;;;24.16;41.47;92779.78;6306028;22;20086;-92
2021/07/03 07:03:22;;;;;;;0.15;0.15;;;;;;;22.95;40.45;92774.19;6279557;22;20015;-90
2021/07/03 07:06:13;;;;;;;0.17;0.17;;;;;;;23.30;39.74;92759.84;6254297;22;20015;-92
2021/07/03 07:09:21;;;;;;;0.35;0.30;;;;;;;22.75;41.45;92770.03;6278672;22;20020;-90
2021/07/03 07:12:16;;;;;;;0.22;0.22;;;;;;;23.36;42.12;92771.03;6303215;22;20249;-88
2021/07/03 07:15:22;;;;;;;;;;;;;;;;;;;;;
2021/07/03 07:18:09;;;;;;;0.20;0.20;;;;;;;23.42;45.18;92766.94;6298294;22;20026;-91
2021/07/03 07:21:06;;;;;;;;;;;;;;;;;;;;;
2021/07/03 07:24:08;;;;;;;0.35;0.35;;;;;;;22.75;45.12;92770.03;6304154;22;20042;-91
2021/07/03 07:26:57;;;;;;;0.20;0.20;;;;;;;23.44;44.91;92776.13;6304721;22;20118;-90
2021/07/03 07:29:58;;;;;;;0.30;0.30;;;;;;;23.21;45.10;92772.69;6305262;22;20094;-92
2021/07/03 07:35:48;;;;;;;;;;;;;;;;;;;;;
2021/07/03 07:39:10;;;;;;;;;;;;;;;;;;;;;
2021/07/03 07:46:42;;;;;;;;;;;;;;;;;;;;;
2021/07/03 07:50:08;;;;;;;;;;;;;;;;;;;;;
2021/07/03 07:59:52;;;;;;;0.40;0.40;;;;;;;23.70;44.78;92790.59;6153377;23;20233;-91
2021/07/03 08:09:54;;;;;;;0.45;0.35;;;;;;;24.38;45.31;92777.34;6155404;23;20463;-91
2021/07/03 08:12:36;;;;;;;0.55;0.47;;;;;;;24.37;45.17;92773.13;6159132;23;20107;-90
2021/07/03 08:15:17;;;;;;;0.47;0.22;;;;;;;24.40;44.68;92788.44;6204376;22;20098;-91
2021/07/03 08:17:59;;;;;;;0.20;0.20;;;;;;;24.27;45.87;92769.19;6279854;22;20012;-90
2021/07/03 08:21:03;;;;;;;0.10;0.10;;;;;;;22.76;48.16;92774.22;6256015;22;20430;-89
2021/07/03 08:23:35;;;;;;;0.20;0.20;;;;;;;23.52;47.16;92782.31;6279998;22;20011;-88
2021/07/03 08:26:08;;;;;;;0.20;0.20;;;;;;;23.15;46.84;92785.59;6278600;22;20093;-88
2021/07/03 08:28:53;;;;;;;0.30;0.30;;;;;;;22.70;49.06;92775.63;6280131;22;20066;-89
2021/07/03 08:31:37;;;;;;;0.10;0.10;;;;;;;22.38;49.46;92781.16;6306873;22;20083;-89
2021/07/03 08:34:21;;;;;;;;;;;;;;;;;;;;;
2021/07/03 08:37:03;;;;;;;0.20;0.20;;;;;;;22.62;50.72;92794.19;6283116;22;20022;-89
2021/07/03 08:39:44;;;;;;;0.20;0.20;;;;;;;22.58;50.28;92787.25;6237905;22;20018;-90
2021/07/03 08:54:08;;;;;;;;;;;;;;;;;;;;;
2021/07/03 08:57:34;;;;;;;;;;;;;;;;;;;;;
2021/07/03 09:00:45;;;;;;;;;;;;;;;;;;;;;
2021/07/03 09:07:22;;;;;;;0.10;0.10;;;;;;;22.52;51.20;92784.09;5952824;24;20376;-93
2021/07/03 09:11:06;;;;;;;0.10;0.10;;;;;;;22.33;51.38;92798.22;6059944;23;20542;-91
2021/07/03 09:21:07;;;;;;;0.10;0.10;;;;;;;23.11;51.29;92781.31;6181549;23;20009;-93
2021/07/03 09:25:27;;;;;;;;;;;;;;;;;;;;;
2021/07/03 09:28:32;;;;;;;;;;;;;;;;;;;;;
2021/07/03 09:35:08;;;;;;;0.30;0.30;;;;;;;23.12;52.04;92772.16;6248234;22;20007;-95
2021/07/03 09:38:34;;;;;;;;;;;;;;;;;;;;;
2021/07/03 09:41:31;;;;;;;;;;;;;;;;;;;;;
2021/07/03 09:44:24;;;;;;;;;;;;;;;;;;;;;
2021/07/03 09:47:22;;;;;;;0.38;0.38;;;;;;;23.55;49.45;92759.44;6329406;22;20014;-93
2021/07/03 09:50:05;;;;;;;0.28;0.20;;;;;;;23.93;48.67;92755.78;6279913;22;20734;-91
2021/07/03 09:53:17;;;;;;;0.22;0.22;;;;;;;23.82;48.93;92755.69;6294515;22;20427;-92
2021/07/03 09:56:09;;;;;;;0.22;0.22;;;;;;;23.27;50.48;92764.03;6284208;22;20013;-90
2021/07/03 10:02:35;;;;;;;;;;;;;;;;;;;;;
2021/07/03 10:05:26;;;;;;;0.32;0.32;;;;;;;23.97;47.08;92755.84;6282754;22;20011;-90
2021/07/03 10:12:51;;;;;;;;;;;;;;;;;;;;;
2021/07/03 10:19:59;;;;;;;;;;;;;;;;;;;;;
2021/07/03 10:27:48;;;;;;;;;;;;;;;;;;;;;
2021/07/03 10:31:40;;;;;;;;;;;;;;;;;;;;;
2021/07/03 10:35:15;;;;;;;;;;;;;;;;;;;;;
2021/07/03 10:39:21;;;;;;;;;;;;;;;;;;;;;
2021/07/03 10:46:20;;;;;;;1.13;0.63;;;;;;;23.43;50.04;92745.19;6232752;22;20308;-93
2021/07/03 10:49:40;;;;;;;;;;;;;;;;;;;;;
2021/07/03 10:52:56;;;;;;;;;;;;;;;;;;;;;
2021/07/03 10:56:11;;;;;;;0.20;0.20;;;;;;;23.26;50.52;92729.69;6307261;22;20500;-90
2021/07/03 10:59:36;;;;;;;0.63;0.45;;;;;;;23.77;49.93;92726.56;6287996;22;20072;-89
2021/07/03 11:06:21;;;;;;;;;;;;;;;;;;;;;
2021/07/03 11:15:23;;;;;;;;;;;;;;;;;;;;;
2021/07/03 11:18:30;;;;;;;0.15;0.15;;;;;;;23.35;49.08;92724.06;6154044;23;20017;-90
2021/07/03 11:21:47;;;;;;;0.25;0.20;;;;;;;23.01;49.60;92713.25;6242150;22;20023;-89
2021/07/03 11:28:33;;;;;;;0.10;0.10;;;;;;;23.22;52.30;92718.94;6305166;22;20040;-78
2021/07/03 11:31:01;;;;;;;0.20;0.20;;;;;;;23.41;52.08;92715.38;6242572;22;20015;-77
2021/07/03 11:33:32;;;;;;;0.50;0.45;;;;;;;23.27;52.46;92709.84;6269529;22;20356;-76
2021/07/03 11:35:58;;;;;;;0.55;0.40;;;;;;;22.90;51.93;92705.09;6272377;22;20019;-77
2021/07/03 11:38:25;;;;;;;0.25;0.15;;;;;;;23.42;50.86;92708.16;6271804;22;20003;-77
2021/07/03 11:40:55;;;;;;;0.22;0.22;;;;;;;23.39;50.26;92709.63;6273881;22;20015;-76
2021/07/03 11:43:22;;;;;;;0.32;0.32;;;;;;;23.58;50.99;92708.75;6267908;22;20019;-76
2021/07/03 11:45:50;;;;;;;0.65;0.45;;;;;;;23.82;49.88;92698.75;6244686;22;20019;-76
2021/07/03 11:48:20;;;;;;;0.73;0.50;;;;;;;23.98;50.22;92704.69;6270636;22;20756;-77
2021/07/03 11:50:47;;;;;;;0.20;0.20;;;;;;;23.92;49.69;92697.38;6268547;22;20038;-77
2021/07/03 11:53:16;;;;;;;0.28;0.28;;;;;;;23.41;51.18;92698.59;6268104;22;20060;-76
2021/07/03 11:55:45;;;;;;;0.38;0.32;;;;;;;23.56;50.42;92699.56;6272875;22;20016;-76
2021/07/03 11:58:38;;;;;;;0.22;0.22;;;;;;;23.64;50.92;92695.84;6269508;22;20004;-78
2021/07/03 12:01:04;;;;;;;0.30;0.25;;;;;;;23.94;51.33;92695.09;6243139;22;20463;-78
2021/07/03 12:03:35;;;;;;;0.82;0.47;;;;;;;24.14;49.80;92685.78;6250298;22;20023;-79
2021/07/03 12:06:04;;;;;;;1.48;0.68;;;;;;;23.99;50.17;92686.75;6273746;22;20023;-78
2021/07/03 12:08:35;;;;;;;0.52;0.50;;;;;;;24.30;49.63;92682.88;6248494;22;20008;-77
2021/07/03 12:11:03;;;;;;;0.45;0.45;;;;;;;24.43;48.74;92686.03;6275187;22;20011;-79
2021/07/03 12:13:31;;;;;;;0.13;0.13;;;;;;;24.14;49.29;92679.63;6274707;22;20004;-79
2021/07/03 12:15:57;;;;;;;0.30;0.30;;;;;;;24.16;48.44;92674.69;6273447;22;20019;-78
2021/07/03 12:18:34;;;;;;;0.50;0.50;;;;;;;23.82;48.75;92675.50;6247163;22;20369;-78
2021/07/03 12:21:06;;;;;;;0.28;0.28;;;;;;;24.11;47.81;92673.13;6276768;22;20015;-78
2021/07/03 12:23:33;;;;;;;0.30;0.30;;;;;;;24.18;47.15;92675.84;6251228;22;20086;-77
2021/07/03 12:26:02;;;;;;;0.20;0.20;;;;;;;24.25;48.51;92675.94;6251926;22;20376;-78
2021/07/03 12:28:28;;;;;;;0.30;0.30;;;;;;;24.08;50.36;92671.19;6278877;22;20014;-78
2021/07/03 12:31:04;;;;;;;0.77;0.75;;;;;;;24.00;51.42;92667.66;6279829;22;20015;-78
2021/07/03 12:33:29;;;;;;;0.50;0.45;;;;;;;24.07;50.51;92678.44;6277821;22;20384;-78
2021/07/03 12:35:55;;;;;;;0.45;0.38;;;;;;;24.28;50.90;92669.09;6250199;22;20027;-78
2021/07/03 12:38:26;;;;;;;0.20;0.20;;;;;;;24.57;50.34;92664.81;6277415;22;20011;-77
2021/07/03 12:40:53;;;;;;;0.25;0.20;;;;;;;24.50;49.37;92659.41;6276398;22;20096;-78
2021/07/03 12:43:29;;;;;;;1.08;0.60;;;;;;;24.45;50.54;92657.00;6275283;22;20022;-79
2021/07/03 12:46:02;;;;;;;0.20;0.20;;;;;;;24.46;50.84;92647.88;6278776;22;20082;-78
2021/07/03 12:48:46;;;;;;;0.30;0.30;;;;;;;24.22;50.29;92635.78;6277720;22;20010;-78
2021/07/03 12:51:12;;;;;;;0.82;0.63;;;;;;;24.24;51.88;92639.63;6279671;22;20012;-78
2021/07/03 12:53:38;;;;;;;0.88;0.50;;;;;;;24.07;51.61;92632.19;6282057;22;20095;-80
2021/07/03 12:56:06;;;;;;;0.47;0.47;;;;;;;23.42;52.34;92636.81;6253741;22;20474;-78
2021/07/03 12:58:33;;;;;;;1.20;0.75;;;;;;;23.51;50.56;92628.50;6276385;22;20008;-78
2021/07/03 13:01:01;;;;;;;0.40;0.40;;;;;;;23.32;53.18;92634.00;6251484;22;20042;-76
2021/07/03 13:03:28;;;;;;;0.43;0.40;;;;;;;22.77;55.62;92623.69;6276828;22;20391;-78
2021/07/03 13:06:05;;;;;;;0.30;0.30;;;;;;;22.73;55.10;92620.19;6251228;22;20022;-78
2021/07/03 13:08:33;;;;;;;0.35;0.35;;;;;;;23.01;53.26;92628.63;6278824;22;20478;-79
2021/07/03 13:11:00;;;;;;;0.47;0.47;;;;;;;22.97;53.56;92627.78;6252085;22;20073;-77
2021/07/03 13:13:26;;;;;;;0.25;0.25;;;;;;;23.11;55.70;92637.16;6249867;22;20447;-78
2021/07/03 13:15:52;;;;;;;0.20;0.20;;;;;;;23.22;55.42;92638.06;6275181;22;20004;-79
2021/07/03 13:18:18;;;;;;;0.55;0.55;;;;;;;23.27;55.37;92633.16;6276127;22;20004;-78
2021/07/03 13:20:48;;;;;;;0.45;0.40;;;;;;;23.24;55.30;92630.47;6225087;22;20043;-78
2021/07/03 13:23:14;;;;;;;0.63;0.43;;;;;;;23.26;55.27;92633.53;6249453;22;20012;-76
2021/07/03 13:25:41;;;;;;;0.40;0.38;;;;;;;23.33;55.23;92632.84;6221974;22;20019;-76
2021/07/03 13:28:08;;;;;;;0.30;0.30;;;;;;;23.43;54.80;92624.22;6272843;22;20086;-76
2021/07/03 13:30:33;;;;;;;0.30;0.30;;;;;;;23.48;54.86;92622.00;6223603;22;20069;-76
2021/07/03 13:33:00;;;;;;;0.47;0.47;;;;;;;23.52;55.05;92624.69;6274769;22;20016;-76
2021/07/03 13:35:26;;;;;;;0.17;0.17;;;;;;;23.47;56.16;92625.78;6274779;22;20138;-75
2021/07/03 13:37:52;;;;;;;1.20;0.75;;;;;;;23.53;56.74;92625.47;6247588;22;20035;-76
2021/07/03 13:40:18;;;;;;;0.95;0.63;;;;;;;23.59;55.53;92629.34;6246826;22;20352;-75
2021/07/03 13:42:44;;;;;;;0.40;0.40;;;;;;;23.49;55.18;92622.75;6272516;22;20607;-75
2021/07/03 13:45:11;;;;;;;1.15;0.73;;;;;;;23.47;55.83;92623.13;6247700;22;20000;-75
2021/07/03 13:47:37;;;;;;;0.30;0.30;;;;;;;23.29;55.65;92616.78;6271745;22;20012;-76
2021/07/03 13:50:04;;;;;;;0.50;0.50;;;;;;;23.37;55.71;92623.78;6272772;22;20008;-76
2021/07/03 13:52:29;;;;;;;0.82;0.63;;;;;;;23.29;54.60;92616.78;6273690;22;20347;-75
2021/07/03 13:54:56;;;;;;;0.20;0.20;;;;;;;23.31;53.70;92627.13;6247355;22;20008;-75
2021/07/03 13:57:22;;;;;;;0.38;0.38;;;;;;;23.28;56.10;92626.72;6271809;22;20012;-75
2021/07/03 13:59:48;;;;;;;0.20;0.20;;;;;;;23.30;54.65;92625.56;6274358;22;20053;-76
2021/07/03 14:02:14;;;;;;;0.20;0.20;;;;;;;23.23;53.49;92620.91;6273693;22;20000;-75
2021/07/03 14:04:40;;;;;;;0.22;0.22;;;;;;;23.30;52.44;92615.66;6274218;22;20390;-75
2021/07/03 14:07:05;;;;;;;0.13;0.13;;;;;;;23.20;52.61;92616.28;6246886;22;20014;-76
2021/07/03 14:09:31;;;;;;;0.22;0.22;;;;;;;23.29;51.09;92606.09;6272900;22;20065;-75
2021/07/03 14:11:57;;;;;;;0.30;0.30;;;;;;;23.43;50.83;92616.19;6273782;22;20351;-75
2021/07/03 14:14:22;;;;;;;0.50;0.50;;;;;;;23.52;50.15;92608.66;6246679;22;20263;-75
2021/07/03 14:16:50;;;;;;;1.80;0.77;;;;;;;23.48;50.12;92610.53;6246817;22;20420;-76
2021/07/03 14:19:17;;;;;;;0.73;0.60;;;;;;;23.69;51.64;92613.47;6272570;22;20015;-76
2021/07/03 14:21:43;;;;;;;0.40;0.40;;;;;;;23.83;50.16;92606.75;6274602;22;20026;-76
2021/07/03 14:24:09;;;;;;;0.98;0.60;;;;;;;23.66;49.42;92614.19;6274693;22;20012;-76
2021/07/03 14:26:34;;;;;;;0.25;0.22;;;;;;;23.89;50.03;92616.75;6274177;22;19996;-76
2021/07/03 14:29:01;;;;;;;0.30;0.22;;;;;;;23.82;50.91;92608.66;6271504;22;20026;-76
2021/07/03 14:31:27;;;;;;;0.70;0.45;;;;;;;23.72;50.49;92606.63;6277910;22;20015;-76
2021/07/03 14:33:53;;;;;;;0.43;0.40;;;;;;;24.01;50.48;92604.28;6304163;22;20015;-75
2021/07/03 14:36:19;;;;;;;1.70;0.93;;;;;;;24.11;49.40;92598.25;6251665;22;20465;-75
2021/07/03 14:38:44;;;;;;;0.70;0.50;;;;;;;23.94;49.14;92588.16;6304255;22;20014;-76
2021/07/03 14:41:10;;;;;;;0.25;0.25;;;;;;;23.78;51.10;92594.50;6277388;22;20343;-75
2021/07/03 14:43:37;;;;;;;0.57;0.57;;;;;;;24.01;49.29;92588.22;6251910;22;20015;-75
2021/07/03 14:46:03;;;;;;;0.35;0.32;;;;;;;24.17;49.42;92588.00;6304498;22;20093;-77
2021/07/03 14:48:29;;;;;;;0.40;0.38;;;;;;;23.89;50.83;92589.25;6252260;22;20007;-79
2021/07/03 14:50:55;;;;;;;1.05;0.60;;;;;;;23.23;53.61;92596.88;6304749;22;19999;-78
2021/07/03 14:53:21;;;;;;;0.30;0.30;;;;;;;23.51;52.94;92584.97;6304231;22;20461;-78
2021/07/03 14:55:47;;;;;;;0.28;0.28;;;;;;;23.23;56.55;92588.84;6276071;22;20011;-79
2021/07/03 14:58:12;;;;;;;0.70;0.63;;;;;;;23.30;55.56;92590.84;6278233;22;20346;-78
2021/07/03 15:00:38;;;;;;;0.57;0.45;;;;;;;23.19;56.97;92580.81;6249660;22;20011;-77
2021/07/03 15:03:04;;;;;;;0.50;0.43;;;;;;;23.12;54.34;92582.63;6277540;22;20303;-76
2021/07/03 15:05:30;;;;;;;0.50;0.50;;;;;;;23.13;56.41;92586.84;6248985;22;20015;-77
2021/07/03 15:07:56;;;;;;;0.40;0.38;;;;;;;23.12;58.19;92586.03;6276651;22;20451;-77
2021/07/03 15:10:21;;;;;;;0.82;0.55;;;;;;;22.98;58.34;92581.25;6304111;22;20000;-77
2021/07/03 15:12:47;;;;;;;0.35;0.35;;;;;;;22.77;58.49;92578.31;6277659;22;20339;-79
2021/07/03 15:15:13;;;;;;;0.43;0.40;;;;;;;22.59;56.19;92581.47;6249886;22;20135;-75
2021/07/03 15:17:40;;;;;;;0.40;0.20;;;;;;;22.48;58.67;92577.13;6278595;22;20072;-77
2021/07/03 15:20:09;;;;;;;0.43;0.40;;;;;;;22.59;59.70;92581.47;6253278;22;20019;-79
2021/07/03 15:22:35;;;;;;;0.40;0.40;;;;;;;22.60;60.53;92576.91;6278487;22;20071;-78
2021/07/03 15:25:07;;;;;;;0.40;0.40;;;;;;;22.64;60.02;92578.50;6278224;22;20008;-78
2021/07/03 15:29:59;;;;;;;0.68;0.47;;;;;;;22.79;59.55;92576.06;6276164;22;20039;-80
2021/07/03 15:32:25;;;;;;;0.77;0.50;;;;;;;22.84;60.32;92570.41;6276194;22;20069;-81
2021/07/03 15:34:51;;;;;;;0.68;0.47;;;;;;;22.85;59.58;92575.38;6276759;22;20003;-82
2021/07/03 15:37:18;;;;;;;1.02;0.55;;;;;;;22.98;58.92;92573.25;6249093;22;20022;-78
2021/07/03 15:39:44;;;;;;;0.38;0.28;;;;;;;23.19;58.52;92570.13;6225954;22;20023;-80
2021/07/03 15:42:10;;;;;;;0.28;0.28;;;;;;;23.39;59.24;92565.41;6277562;22;20007;-82
2021/07/03 15:44:35;;;;;;;0.65;0.55;;;;;;;23.46;58.29;92562.03;6225809;22;20043;-84
2021/07/03 15:47:01;;;;;;;0.82;0.65;;;;;;;23.60;56.50;92561.44;6278610;22;20007;-84
2021/07/03 15:49:27;;;;;;;2.25;1.33;;;;;;;23.71;56.27;92562.34;6227778;22;20347;-83
2021/07/03 15:51:53;;;;;;;0.28;0.20;;;;;;;22.86;59.28;92562.81;6277705;22;20016;-83
2021/07/03 15:54:18;;;;;;;0.98;0.60;;;;;;;22.72;61.12;92560.72;6279069;22;20098;-82
2021/07/03 15:56:44;;;;;;;2.33;1.55;;;;;;;23.10;59.87;92563.50;6226351;22;20043;-83
2021/07/03 15:59:12;;;;;;;1.45;0.82;;;;;;;23.26;59.20;92559.53;6276323;22;20004;-80
2021/07/03 16:01:38;;;;;;;1.85;1.00;;;;;;;23.44;59.38;92554.41;6250877;22;20018;-82
2021/07/03 16:04:04;;;;;;;0.80;0.50;;;;;;;23.47;59.65;92552.91;6224883;22;20053;-80
2021/07/03 16:06:30;;;;;;;0.40;0.40;;;;;;;23.47;60.65;92553.66;6276421;22;20015;-80
2021/07/03 16:08:57;;;;;;;0.55;0.50;;;;;;;23.66;59.62;92559.97;6275678;22;20105;-82
2021/07/03 16:11:22;;;;;;;0.65;0.50;;;;;;;23.74;59.25;92556.25;6249920;22;20022;-80
2021/07/03 16:13:48;;;;;;;0.63;0.52;;;;;;;23.57;60.35;92556.81;6224337;22;20023;-80
2021/07/03 16:16:15;;;;;;;0.60;0.40;;;;;;;23.43;60.67;92558.19;6248006;22;20012;-81
2021/07/03 16:18:41;;;;;;;0.30;0.30;;;;;;;23.25;60.56;92552.66;6250242;22;20096;-81
2021/07/03 16:21:07;;;;;;;0.25;0.25;;;;;;;23.20;61.35;92560.22;6275531;22;20015;-82
2021/07/03 16:23:33;;;;;;;0.85;0.65;;;;;;;23.21;62.49;92551.06;6276426;22;20509;-81
2021/07/03 16:26:20;;;;;;;0.30;0.30;;;;;;;23.27;64.15;92554.97;6228744;22;20011;-82
2021/07/03 16:28:45;;;;;;;0.80;0.57;;;;;;;23.22;63.44;92557.97;6215891;22;20486;-80
2021/07/03 16:31:11;;;;;;;0.50;0.50;;;;;;;23.13;65.44;92563.56;6248288;23;20012;-79
2021/07/03 16:33:37;;;;;;;1.23;0.70;;;;;;;22.94;65.49;92561.75;6275142;22;20019;-78
2021/07/03 16:36:03;;;;;;;0.47;0.47;;;;;;;22.90;65.72;92555.63;6244626;23;20020;-78
2021/07/03 16:38:28;;;;;;;0.47;0.40;;;;;;;22.90;65.15;92563.63;6245844;23;20359;-77
2021/07/03 16:40:54;;;;;;;0.28;0.28;;;;;;;22.92;65.13;92556.03;6243372;23;20027;-78
2021/07/03 16:43:20;;;;;;;0.47;0.43;;;;;;;23.05;62.71;92557.34;6218119;23;20352;-81
2021/07/03 16:45:46;;;;;;;0.70;0.70;;;;;;;23.05;61.48;92553.94;6247594;22;20311;-79
2021/07/03 16:48:12;;;;;;;0.88;0.52;;;;;;;23.10;60.64;92555.50;6245730;23;20008;-78
2021/07/03 16:50:41;;;;;;;0.55;0.40;;;;;;;22.96;60.37;92550.72;6247205;22;20448;-78
2021/07/03 16:53:07;;;;;;;0.88;0.55;;;;;;;;;;6246392;23;20012;-79
2021/07/03 16:55:33;;;;;;;0.45;0.45;;;;;;;22.98;58.69;92548.47;6249082;22;20049;-79
2021/07/03 16:57:58;;;;;;;0.50;0.50;;;;;;;23.03;59.25;92546.28;6245658;23;20001;-78
2021/07/03 17:00:24;;;;;;;0.60;0.40;;;;;;;22.94;58.82;92543.06;6245586;23;20022;-80
2021/07/03 17:02:50;;;;;;;0.75;0.32;;;;;;;22.95;56.67;92536.63;6220815;23;20095;-79
2021/07/03 17:05:15;;;;;;;1.33;1.10;;;;;;;22.84;56.68;92541.81;6247728;23;20026;-79
2021/07/03 17:07:41;;;;;;;0.38;0.38;;;;;;;22.79;57.29;92542.13;6247180;23;20011;-79
2021/07/03 17:10:08;;;;;;;0.82;0.70;;;;;;;22.71;57.51;92545.06;6245481;23;20479;-79
2021/07/03 17:12:33;;;;;;;0.25;0.25;;;;;;;22.47;55.54;92549.66;6269827;22;20448;-79
2021/07/03 17:14:59;;;;;;;0.35;0.30;;;;;;;22.39;57.08;92540.03;6270973;22;20012;-80
2021/07/03 17:17:25;;;;;;;0.20;0.20;;;;;;;22.39;56.59;92540.78;6246386;23;20054;-79
2021/07/03 17:19:51;;;;;;;0.20;0.20;;;;;;;22.36;56.37;92535.41;6246238;22;20086;-79
2021/07/03 17:22:17;;;;;;;0.65;0.38;;;;;;;22.38;57.96;92543.81;6270944;22;20011;-80
2021/07/03 17:24:43;;;;;;;0.93;0.47;;;;;;;22.37;58.55;92537.72;6272095;22;20036;-78
2021/07/03 17:27:10;;;;;;;0.80;0.47;;;;;;;22.35;58.16;92534.63;6248996;23;19996;-81
2021/07/03 17:29:37;;;;;;;0.17;0.17;;;;;;;22.41;57.30;92532.44;6301099;22;20023;-83
2021/07/03 17:32:03;;;;;;;0.75;0.45;;;;;;;22.39;56.75;92532.78;6281143;22;20015;-80
2021/07/03 17:34:28;;;;;;;0.38;0.38;;;;;;;22.31;56.57;92525.81;6282604;22;20347;-77
2021/07/03 17:36:54;;;;;;;0.35;0.28;;;;;;;22.21;56.96;92529.06;6280076;22;20022;-76
2021/07/03 17:39:20;;;;;;;0.47;0.28;;;;;;;22.04;58.20;92524.97;6304847;22;20056;-78
2021/07/03 17:41:45;;;;;;;0.52;0.50;;;;;;;21.90;58.70;92522.09;6278228;22;20026;-79
2021/07/03 17:44:11;;;;;;;0.15;0.15;;;;;;;21.75;59.17;92521.88;6303654;22;20015;-78
2021/07/03 17:46:37;;;;;;;0.43;0.32;;;;;;;21.61;59.60;92516.28;6303285;22;20023;-76
2021/07/03 17:49:02;;;;;;;0.60;0.55;;;;;;;21.48;60.56;92520.22;6303259;22;20015;-78
2021/07/03 17:51:29;;;;;;;0.65;0.63;;;;;;;21.28;61.16;92514.91;6275821;22;20072;-77
2021/07/03 17:53:54;;;;;;;0.38;0.30;;;;;;;21.13;61.35;92511.19;6302491;22;20019;-79
2021/07/03 17:56:20;;;;;;;0.50;0.50;;;;;;;21.08;61.89;92518.69;6302470;22;20019;-76
2021/07/03 17:58:48;;;;;;;0.40;0.32;;;;;;;20.98;62.99;92515.47;6275182;22;20018;-74
2021/07/03 18:01:13;;;;;;;0.17;0.17;;;;;;;20.83;63.46;92510.19;6304457;22;20478;-76
2021/07/03 18:03:40;;;;;;;0.30;0.30;;;;;;;20.81;63.09;92523.88;6275871;22;20007;-78
2021/07/03 18:06:05;;;;;;;0.47;0.47;;;;;;;20.74;63.64;92521.06;6277506;22;20022;-76
2021/07/03 18:08:31;;;;;;;0.60;0.40;;;;;;;20.71;63.73;92511.84;6303175;22;20039;-77
2021/07/03 18:10:57;;;;;;;0.20;0.20;;;;;;;20.68;63.93;92522.44;6305965;22;20022;-75
2021/07/03 18:13:22;;;;;;;0.38;0.32;;;;;;;20.66;63.95;92522.00;6249840;22;20023;-77
2021/07/03 18:15:52;;;;;;;0.40;0.40;;;;;;;20.61;64.57;92519.63;6304074;22;20018;-79
2021/07/03 18:18:18;;;;;;;0.20;0.20;;;;;;;20.57;64.29;92512.34;6305374;22;20013;-79
2021/07/03 18:20:44;;;;;;;0.17;0.17;;;;;;;20.54;64.06;92512.25;6308429;22;20019;-80
2021/07/03 18:23:09;;;;;;;0.32;0.32;;;;;;;20.49;63.88;92515.94;6286010;22;20488;-80
2021/07/03 18:25:35;;;;;;;0.20;0.20;;;;;;;20.41;63.94;92511.56;6312268;22;20015;-80
2021/07/03 18:28:03;;;;;;;0.38;0.35;;;;;;;20.40;63.95;92507.41;6301310;22;20035;-81
2021/07/03 18:30:30;;;;;;;0.80;0.40;;;;;;;20.38;64.31;92499.75;6276269;22;20019;-80
2021/07/03 18:32:56;;;;;;;0.90;0.60;;;;;;;20.35;64.80;92499.66;6249817;22;20003;-81
2021/07/03 18:35:22;;;;;;;0.32;0.32;;;;;;;20.25;64.75;92508.19;6274184;22;20037;-80
2021/07/03 18:37:47;;;;;;;0.22;0.22;;;;;;;20.18;65.47;92506.13;6276796;22;20815;-80
2021/07/03 18:40:14;;;;;;;0.30;0.30;;;;;;;20.10;65.89;92510.50;6274892;22;20054;-80
2021/07/03 18:42:41;;;;;;;1.25;1.15;;;;;;;20.08;65.94;92504.75;6225700;22;20003;-80
2021/07/03 18:45:07;;;;;;;0.20;0.20;;;;;;;19.99;66.36;92506.81;6248439;22;20020;-80
2021/07/03 18:47:33;;;;;;;0.22;0.22;;;;;;;20.01;66.57;92501.19;6277257;22;20144;-82
2021/07/03 18:49:59;;;;;;;0.32;0.28;;;;;;;20.04;65.96;92511.91;6276958;22;20015;-83
2021/07/03 18:52:25;;;;;;;0.88;0.50;;;;;;;20.00;66.50;92503.06;6248964;22;20011;-82
2021/07/03 18:54:51;;;;;;;0.60;0.47;;;;;;;19.97;66.57;92506.41;6223967;22;20411;-82
2021/07/03 18:57:16;;;;;;;0.47;0.40;;;;;;;19.93;66.90;92501.00;6253888;22;20015;-81
2021/07/03 18:59:42;;;;;;;0.28;0.22;;;;;;;19.91;66.38;92499.81;6281490;22;20020;-81
2021/07/03 19:02:08;;;;;;;0.38;0.38;;;;;;;19.88;64.43;92498.63;6253188;22;20016;-81
2021/07/03 19:04:35;;;;;;;0.20;0.20;;;;;;;19.87;61.97;92491.75;6254865;22;20023;-82
2021/07/03 19:07:01;;;;;;;0.95;0.50;;;;;;;19.87;59.18;92496.31;6228901;22;20455;-83
2021/07/03 19:09:26;;;;;;;0.20;0.20;;;;;;;19.89;58.72;92504.69;6279588;22;20016;-82
2021/07/03 19:11:52;;;;;;;0.75;0.68;;;;;;;19.86;59.70;92505.38;6200969;22;20024;-83
2021/07/03 19:14:18;;;;;;;0.30;0.30;;;;;;;19.83;59.70;92503.41;6226105;22;20012;-82
2021/07/03 19:16:44;;;;;;;0.50;0.38;;;;;;;19.81;58.26;92492.34;6254333;22;20016;-83
2021/07/03 19:19:10;;;;;;;0.47;0.45;;;;;;;19.79;58.50;92497.22;6280224;22;20443;-83
2021/07/03 19:21:36;;;;;;;0.10;0.10;;;;;;;19.74;60.09;92493.72;6280313;22;20023;-83
2021/07/03 19:24:02;;;;;;;0.63;0.50;;;;;;;19.70;60.34;92498.19;6229420;22;20021;-82
2021/07/03 19:26:28;;;;;;;0.80;0.68;;;;;;;19.68;59.95;92491.63;6253764;22;20034;-80
2021/07/03 19:28:54;;;;;;;0.20;0.20;;;;;;;19.65;59.62;92490.44;6269348;22;20431;-79
2021/07/03 19:31:21;;;;;;;0.22;0.22;;;;;;;19.65;59.23;92495.75;6284599;22;20019;-82
2021/07/03 19:33:47;;;;;;;0.43;0.43;;;;;;;19.64;58.06;92477.50;6259458;22;20522;-83
2021/07/03 19:36:12;;;;;;;0.60;0.43;;;;;;;19.64;57.98;92482.81;6283698;22;20039;-82
2021/07/03 19:38:38;;;;;;;0.20;0.20;;;;;;;19.64;57.40;92478.28;6309007;22;20007;-82
2021/07/03 19:41:04;;;;;;;0.10;0.10;;;;;;;19.64;57.30;92469.56;6255069;22;20027;-82
2021/07/03 19:43:30;;;;;;;0.10;0.10;;;;;;;19.62;57.06;92469.13;6309929;22;20463;-81
2021/07/03 19:45:55;;;;;;;0.32;0.32;;;;;;;19.63;56.31;92466.09;6283253;22;20011;-82
2021/07/03 19:48:21;;;;;;;0.13;0.13;;;;;;;19.61;56.37;92460.38;6284492;22;20041;-82
2021/07/03 19:50:47;;;;;;;0.20;0.20;;;;;;;19.62;54.41;92453.19;6256802;22;20043;-79
2021/07/03 19:53:13;;;;;;;0.20;0.20;;;;;;;19.60;54.69;92458.06;6307499;22;20027;-79
2021/07/03 19:55:38;;;;;;;0.75;0.43;;;;;;;19.59;55.27;92453.84;6256414;22;20022;-80
2021/07/03 19:58:04;;;;;;;0.30;0.30;;;;;;;19.57;55.07;92456.88;6309761;22;20011;-79
2021/07/03 20:00:32;;;;;;;2.22;0.65;;;;;;;19.54;55.60;92450.38;6308814;22;20040;-79
2021/07/03 20:02:58;;;;;;;0.10;0.10;;;;;;;19.46;56.35;92445.97;6282088;22;20507;-79
2021/07/03 20:05:24;;;;;;;0.20;0.20;;;;;;;19.41;56.44;92446.25;6310783;22;20011;-79
2021/07/03 20:07:50;;;;;;;0.20;0.20;;;;;;;19.35;56.34;92444.94;6281502;22;20049;-79
2021/07/03 20:10:17;;;;;;;0.10;0.10;;;;;;;19.29;56.52;92447.06;6309859;22;20172;-79
2021/07/03 20:12:43;;;;;;;1.80;0.70;;;;;;;19.24;57.01;92455.28;6308876;22;20025;-79
2021/07/03 20:15:12;;;;;;;0.45;0.45;;;;;;;19.15;57.34;92452.03;6308997;22;20341;-79
2021/07/03 20:17:41;;;;;;;0.65;0.52;;;;;;;19.05;57.74;92448.00;6308520;22;20003;-79
2021/07/03 20:20:13;;;;;;;0.82;0.43;;;;;;;18.96;58.74;92450.03;6307844;22;20011;-78
2021/07/03 20:22:39;;;;;;;0.38;0.20;;;;;;;18.85;59.41;92455.03;6282721;22;20018;-79
2021/07/03 20:25:07;;;;;;;0.20;0.20;;;;;;;18.73;59.94;92460.34;6255135;22;20019;-79
2021/07/03 20:29:59;;;;;;;0.10;0.10;;;;;;;18.46;61.24;92470.59;6309997;22;20350;-79
2021/07/03 20:32:25;;;;;;;0.20;0.20;;;;;;;18.38;61.22;92468.06;6257215;22;20016;-79